createdAt,value
2023-12-07T00:00:07.015Z,2.15
2023-12-07T00:02:39.073Z,2.13
2023-12-07T00:05:11.201Z,1.98
2023-12-07T00:07:43.245Z,2.65
2023-12-07T00:10:14.977Z,2.80
2023-12-07T00:12:47.026Z,1.93
2023-12-07T00:15:18.793Z,1.63
2023-12-07T00:17:50.504Z,3.05
2023-12-07T00:20:22.242Z,2.03
2023-12-07T00:22:54.352Z,1.50
2023-12-07T00:25:26.117Z,2.13
2023-12-07T00:27:58.194Z,2.10
2023-12-07T00:30:29.907Z,2.20
2023-12-07T00:33:01.929Z,1.67
2023-12-07T00:35:34.001Z,1.85
2023-12-07T00:38:05.785Z,2.95
2023-12-07T00:40:37.970Z,2.47
2023-12-07T00:43:09.775Z,2.47
2023-12-07T00:45:41.690Z,2.23
2023-12-07T00:48:13.504Z,2.25
2023-12-07T00:50:45.516Z,3.30
2023-12-07T00:53:17.270Z,2.80
2023-12-07T00:55:49.351Z,2.83
2023-12-07T00:58:21.076Z,2.83
2023-12-07T01:00:52.834Z,3.10
2023-12-07T01:03:24.645Z,2.93
2023-12-07T01:05:56.523Z,2.30
2023-12-07T01:08:28.426Z,2.65
2023-12-07T01:11:00.156Z,2.73
2023-12-07T01:13:32.258Z,2.13
2023-12-07T01:16:04.025Z,2.88
2023-12-07T01:18:36.179Z,1.87
2023-12-07T01:21:07.997Z,2.75
2023-12-07T01:23:39.847Z,2.47
2023-12-07T01:26:11.634Z,2.00
2023-12-07T01:28:43.526Z,2.30
2023-12-07T01:31:15.222Z,2.33
2023-12-07T01:33:47.387Z,1.73
2023-12-07T01:36:19.510Z,2.47
2023-12-07T01:38:51.690Z,2.83
2023-12-07T01:41:23.735Z,2.20
2023-12-07T01:43:55.503Z,2.30
2023-12-07T01:46:27.421Z,2.07
2023-12-07T01:48:59.284Z,2.70
2023-12-07T01:51:31.419Z,2.97
2023-12-07T01:54:03.134Z,2.65
2023-12-07T01:56:35.363Z,1.73
2023-12-07T01:59:07.065Z,2.17
2023-12-07T02:01:39.008Z,2.40
2023-12-07T02:04:11.223Z,2.53
2023-12-07T02:06:42.961Z,2.17
2023-12-07T02:09:15.044Z,2.60
2023-12-07T02:11:46.783Z,3.72
2023-12-07T02:14:18.852Z,2.53
2023-12-07T02:16:50.603Z,2.95
2023-12-07T02:19:22.832Z,2.60
2023-12-07T02:21:54.570Z,2.25
2023-12-07T02:24:26.522Z,2.57
2023-12-07T02:26:58.243Z,2.60
2023-12-07T02:29:30.710Z,2.55
2023-12-07T02:32:02.441Z,2.05
2023-12-07T02:34:34.542Z,2.83
2023-12-07T02:37:06.649Z,2.33
2023-12-07T02:39:38.370Z,2.40
2023-12-07T02:42:10.427Z,1.83
2023-12-07T02:44:42.169Z,2.75
2023-12-07T02:47:14.216Z,2.40
2023-12-07T02:49:45.963Z,2.03
2023-12-07T02:52:18.198Z,3.57
2023-12-07T02:54:49.920Z,3.20
2023-12-07T02:57:21.657Z,2.30
2023-12-07T02:59:53.422Z,2.77
2023-12-07T03:02:25.889Z,3.28
2023-12-07T03:07:29.842Z,2.42
2023-12-07T03:10:01.680Z,3.08
2023-12-07T03:12:33.472Z,1.40
2023-12-07T03:15:05.569Z,1.80
2023-12-07T03:17:37.310Z,3.67
2023-12-07T03:20:09.408Z,2.57
2023-12-07T03:22:41.253Z,2.95
2023-12-07T03:25:13.053Z,3.40
2023-12-07T03:27:44.866Z,2.80
2023-12-07T03:30:16.946Z,3.67
2023-12-07T03:32:48.702Z,2.58
2023-12-07T03:35:21.084Z,2.75
2023-12-07T03:37:53.486Z,2.90
2023-12-07T03:40:25.702Z,2.97
2023-12-07T03:42:57.806Z,3.70
2023-12-07T03:45:29.611Z,3.90
2023-12-07T03:48:01.843Z,3.67
2023-12-07T03:50:33.762Z,2.78
2023-12-07T03:53:05.480Z,1.52
2023-12-07T03:55:37.236Z,3.22
2023-12-07T03:58:09.049Z,2.60
2023-12-07T04:00:40.874Z,3.83
2023-12-07T04:03:13.131Z,3.10
2023-12-07T04:05:45.277Z,2.72
2023-12-07T04:08:17.377Z,3.42
2023-12-07T04:10:49.348Z,2.38
2023-12-07T04:13:21.089Z,2.50
2023-12-07T04:15:53.056Z,3.77
2023-12-07T04:18:24.871Z,2.90
2023-12-07T04:20:56.642Z,2.65
2023-12-07T04:23:28.349Z,2.33
2023-12-07T04:26:00.520Z,2.30
2023-12-07T04:28:32.309Z,2.78
2023-12-07T04:31:04.444Z,3.27
2023-12-07T04:33:36.336Z,3.35
2023-12-07T04:36:08.279Z,3.00
2023-12-07T04:38:40.299Z,3.17
2023-12-07T04:41:12.012Z,3.90
2023-12-07T04:43:44.079Z,2.40
2023-12-07T04:46:17.562Z,2.63
2023-12-07T04:48:50.258Z,3.03
2023-12-07T04:51:22.130Z,2.70
2023-12-07T04:53:58.316Z,2.60
2023-12-07T04:56:34.651Z,3.10
2023-12-07T04:59:06.409Z,1.63
2023-12-07T05:01:38.382Z,2.65
2023-12-07T05:04:10.825Z,3.00
2023-12-07T05:06:42.815Z,4.45
2023-12-07T05:09:14.519Z,2.28
2023-12-07T05:11:46.566Z,3.20
2023-12-07T05:16:51.248Z,2.85
2023-12-07T05:19:23.020Z,2.88
2023-12-07T05:21:54.807Z,3.10
2023-12-07T05:24:26.509Z,2.88
2023-12-07T05:26:58.683Z,3.53
2023-12-07T05:29:30.444Z,2.80
2023-12-07T05:32:02.309Z,2.40
2023-12-07T05:34:34.198Z,3.00
2023-12-07T05:37:05.979Z,3.93
2023-12-07T05:39:37.738Z,3.73
2023-12-07T05:42:09.475Z,3.70
2023-12-07T05:44:41.529Z,3.27
2023-12-07T05:47:13.749Z,3.28
2023-12-07T05:49:45.871Z,3.43
2023-12-07T05:52:17.657Z,4.20
2023-12-07T05:54:49.754Z,2.35
2023-12-07T05:57:22.368Z,3.08
2023-12-07T05:59:54.302Z,3.28
2023-12-07T06:02:26.656Z,3.88
2023-12-07T06:04:58.625Z,3.75
2023-12-07T06:07:30.751Z,3.10
2023-12-07T06:10:02.593Z,4.20
2023-12-07T06:12:34.677Z,3.67
2023-12-07T06:15:09.107Z,3.85
2023-12-07T06:17:40.989Z,4.53
2023-12-07T06:20:12.748Z,3.88
2023-12-07T06:22:44.504Z,3.83
2023-12-07T06:25:16.519Z,3.47
2023-12-07T06:27:48.640Z,4.60
2023-12-07T06:30:20.722Z,4.30
2023-12-07T06:32:52.502Z,3.45
2023-12-07T06:35:24.629Z,3.40
2023-12-07T06:37:56.341Z,3.60
2023-12-07T06:40:28.471Z,2.92
2023-12-07T06:43:00.257Z,3.05
2023-12-07T06:45:32.060Z,4.60
2023-12-07T06:48:03.860Z,3.90
2023-12-07T06:50:36.213Z,4.60
2023-12-07T06:53:08.314Z,3.70
2023-12-07T06:55:43.522Z,3.88
2023-12-07T06:58:17.168Z,2.38
2023-12-07T07:00:48.982Z,3.43
2023-12-07T07:03:20.736Z,3.03
2023-12-07T07:05:52.618Z,3.70
2023-12-07T07:08:24.677Z,2.90
2023-12-07T07:10:56.433Z,4.50
2023-12-07T07:13:28.227Z,3.33
2023-12-07T07:16:00.013Z,3.53
2023-12-07T07:18:32.104Z,3.78
2023-12-07T07:21:03.857Z,3.47
2023-12-07T07:23:36.012Z,2.80
2023-12-07T07:26:08.081Z,3.50
2023-12-07T07:28:40.146Z,4.15
2023-12-07T07:31:11.891Z,2.85
2023-12-07T07:33:43.668Z,3.40
2023-12-07T07:36:15.534Z,4.13
2023-12-07T07:38:47.307Z,2.95
2023-12-07T07:41:19.354Z,4.63
2023-12-07T07:43:51.059Z,3.22
2023-12-07T07:46:22.821Z,4.40
2023-12-07T07:48:54.608Z,3.47
2023-12-07T07:51:26.781Z,4.15
2023-12-07T07:53:59.734Z,3.83
2023-12-07T07:56:32.013Z,3.95
2023-12-07T07:59:03.849Z,5.63
2023-12-07T08:01:35.674Z,3.47
2023-12-07T08:04:07.520Z,3.97
2023-12-07T08:06:39.277Z,4.97
2023-12-07T08:09:11.306Z,5.50
2023-12-07T08:11:43.074Z,3.22
2023-12-07T08:14:15.213Z,4.93
2023-12-07T08:16:47.265Z,4.20
2023-12-07T08:19:19.025Z,4.78
2023-12-07T08:21:50.810Z,3.93
2023-12-07T08:24:22.524Z,4.18
2023-12-07T08:26:54.258Z,4.00
2023-12-07T08:29:25.970Z,3.45
2023-12-07T08:31:58.029Z,4.25
2023-12-07T08:34:30.274Z,3.65
2023-12-07T08:37:02.475Z,3.97
2023-12-07T08:39:34.278Z,4.13
2023-12-07T08:42:06.008Z,5.10
2023-12-07T08:44:37.745Z,3.88
2023-12-07T08:47:09.481Z,4.13
2023-12-07T08:49:41.253Z,4.13
2023-12-07T08:52:22.794Z,2.90
2023-12-07T08:55:03.568Z,4.80
2023-12-07T08:57:35.295Z,3.77
2023-12-07T09:00:07.288Z,4.50
2023-12-07T09:02:46.112Z,4.32
2023-12-07T09:05:19.696Z,4.40
2023-12-07T09:07:51.769Z,4.57
2023-12-07T09:10:23.902Z,4.80
2023-12-07T09:12:56.071Z,5.15
2023-12-07T09:15:27.853Z,5.05
2023-12-07T09:18:00.017Z,3.70
2023-12-07T09:20:31.750Z,4.88
2023-12-07T09:23:03.820Z,5.25
2023-12-07T09:25:35.609Z,4.47
2023-12-07T09:28:07.754Z,4.40
2023-12-07T09:30:39.503Z,4.65
2023-12-07T09:33:11.403Z,4.77
2023-12-07T09:35:43.176Z,4.70
2023-12-07T09:38:15.155Z,3.58
2023-12-07T09:40:47.103Z,5.30
2023-12-07T09:43:19.298Z,3.40
2023-12-07T09:45:51.391Z,4.38
2023-12-07T09:48:23.184Z,5.10
2023-12-07T09:50:55.016Z,4.77
2023-12-07T09:53:26.777Z,5.33
2023-12-07T09:55:58.879Z,4.35
2023-12-07T09:58:38.311Z,5.65
2023-12-07T10:01:12.861Z,4.57
2023-12-07T10:03:44.629Z,4.97
2023-12-07T10:06:16.800Z,5.07
2023-12-07T10:08:48.705Z,5.18
2023-12-07T10:11:20.781Z,4.10
2023-12-07T10:13:52.768Z,5.93
2023-12-07T10:16:25.110Z,4.53
2023-12-07T10:18:57.183Z,2.97
2023-12-07T10:21:28.964Z,4.85
2023-12-07T10:24:01.037Z,3.70
2023-12-07T10:26:33.313Z,4.75
2023-12-07T10:29:05.721Z,5.45
2023-12-07T10:31:37.488Z,4.40
2023-12-07T10:34:09.573Z,5.43
2023-12-07T10:36:43.072Z,5.38
2023-12-07T10:39:21.656Z,4.47
2023-12-07T10:41:57.403Z,4.78
2023-12-07T10:44:29.618Z,5.35
2023-12-07T10:47:01.688Z,4.00
2023-12-07T10:49:35.930Z,4.18
2023-12-07T10:52:09.897Z,4.95
2023-12-07T10:54:41.662Z,4.13
2023-12-07T10:57:14.313Z,4.65
2023-12-07T10:59:46.786Z,4.22
2023-12-07T11:02:21.377Z,3.92
2023-12-07T11:04:53.696Z,4.70
2023-12-07T11:07:26.063Z,4.13
2023-12-07T11:09:58.412Z,4.38
2023-12-07T11:12:30.312Z,4.45
2023-12-07T11:15:02.340Z,4.10
2023-12-07T11:17:34.103Z,4.97
2023-12-07T11:20:06.216Z,4.28
2023-12-07T11:22:37.978Z,3.63
2023-12-07T11:25:10.090Z,3.67
2023-12-07T11:27:41.866Z,4.95
2023-12-07T11:30:13.992Z,5.45
2023-12-07T11:32:45.860Z,5.53
2023-12-07T11:35:18.040Z,4.60
2023-12-07T11:37:49.760Z,4.90
2023-12-07T11:40:21.936Z,3.90
2023-12-07T11:42:54.077Z,4.13
2023-12-07T11:45:25.821Z,4.50
2023-12-07T11:47:57.638Z,5.43
2023-12-07T11:50:29.429Z,5.83
2023-12-07T11:53:01.558Z,5.05
2023-12-07T11:55:33.321Z,3.88
2023-12-07T11:58:05.385Z,4.13
2023-12-07T12:00:37.359Z,3.75
2023-12-07T12:03:09.585Z,4.65
2023-12-07T12:05:41.507Z,5.32
2023-12-07T12:08:13.479Z,5.17
2023-12-07T12:10:45.260Z,5.33
2023-12-07T12:13:17.321Z,4.67
2023-12-07T12:15:49.311Z,5.13
2023-12-07T12:18:21.058Z,4.82
2023-12-07T12:20:52.889Z,6.17
2023-12-07T12:23:24.596Z,5.40
2023-12-07T12:25:56.367Z,4.55
2023-12-07T12:28:29.257Z,3.65
2023-12-07T12:31:01.271Z,5.40
2023-12-07T12:33:33.065Z,4.53
2023-12-07T12:36:05.110Z,4.33
2023-12-07T12:38:42.713Z,6.13
2023-12-07T12:41:16.452Z,5.13
2023-12-07T12:43:48.218Z,6.43
2023-12-07T12:46:20.303Z,5.18
2023-12-07T12:48:52.020Z,4.75
2023-12-07T12:51:24.056Z,4.45
2023-12-07T12:53:55.778Z,6.20
2023-12-07T12:56:27.903Z,4.55
2023-12-07T12:59:03.722Z,6.90
2023-12-07T13:01:38.260Z,4.90
2023-12-07T13:04:10.098Z,6.05
2023-12-07T13:06:42.178Z,5.05
2023-12-07T13:09:14.017Z,5.45
2023-12-07T13:11:46.136Z,6.13
2023-12-07T13:14:17.846Z,6.47
2023-12-07T13:16:49.920Z,6.25
2023-12-07T13:19:21.901Z,5.78
2023-12-07T13:21:53.950Z,6.47
2023-12-07T13:24:25.668Z,6.00
2023-12-07T13:26:58.040Z,6.82
2023-12-07T13:29:35.924Z,7.70
2023-12-07T13:32:08.723Z,7.30
2023-12-07T13:34:40.629Z,5.72
2023-12-07T13:37:12.649Z,6.20
2023-12-07T13:39:44.426Z,5.60
2023-12-07T13:42:16.649Z,6.50
2023-12-07T13:44:48.431Z,6.25
2023-12-07T13:47:20.376Z,6.83
2023-12-07T13:49:52.136Z,5.57
2023-12-07T13:52:24.161Z,6.03
2023-12-07T13:54:55.891Z,5.85
2023-12-07T13:57:28.203Z,7.70
2023-12-07T14:00:01.113Z,9.20
2023-12-07T14:02:34.076Z,7.72
2023-12-07T14:05:05.844Z,6.70
2023-12-07T14:07:37.929Z,7.35
2023-12-07T14:10:09.696Z,6.45
2023-12-07T14:12:41.722Z,5.97
2023-12-07T14:15:14.045Z,8.45
2023-12-07T14:17:50.906Z,5.50
2023-12-07T14:20:37.623Z,7.22
2023-12-07T14:23:17.385Z,7.03
2023-12-07T14:25:49.107Z,6.10
2023-12-07T14:28:21.093Z,8.35
2023-12-07T14:30:52.865Z,6.55
2023-12-07T14:33:24.832Z,6.72
2023-12-07T14:35:56.760Z,6.03
2023-12-07T14:38:28.932Z,5.90
2023-12-07T14:41:00.656Z,6.85
2023-12-07T14:43:32.715Z,4.63
2023-12-07T14:46:04.422Z,7.00
2023-12-07T14:48:36.502Z,5.80
2023-12-07T14:51:08.373Z,6.22
2023-12-07T14:53:40.492Z,4.32
2023-12-07T14:56:12.280Z,6.80
2023-12-07T14:58:44.187Z,4.47
2023-12-07T15:01:15.935Z,4.75
2023-12-07T15:03:47.763Z,4.13
2023-12-07T15:06:19.536Z,7.27
2023-12-07T15:08:51.624Z,5.13
2023-12-07T15:11:23.401Z,5.80
2023-12-07T15:13:55.489Z,5.10
2023-12-07T15:16:27.218Z,4.38
2023-12-07T15:18:59.352Z,5.90
2023-12-07T15:21:31.206Z,5.03
2023-12-07T15:24:03.085Z,4.70
2023-12-07T15:26:34.873Z,6.20
2023-12-07T15:29:06.707Z,5.10
2023-12-07T15:31:38.434Z,5.93
2023-12-07T15:34:15.701Z,4.65
2023-12-07T15:36:53.712Z,7.13
2023-12-07T15:39:25.873Z,5.07
2023-12-07T15:41:58.640Z,5.18
2023-12-07T15:44:32.457Z,6.03
2023-12-07T15:47:04.585Z,4.55
2023-12-07T15:49:36.781Z,6.38
2023-12-07T15:52:08.634Z,5.07
2023-12-07T15:54:41.655Z,4.83
2023-12-07T15:57:13.670Z,5.53
2023-12-07T15:59:45.737Z,5.20
2023-12-07T16:02:17.606Z,3.47
2023-12-07T16:04:49.807Z,6.03
2023-12-07T16:07:21.935Z,4.88
2023-12-07T16:09:55.007Z,4.17
2023-12-07T16:12:27.214Z,5.25
2023-12-07T16:14:59.701Z,5.33
2023-12-07T16:17:31.526Z,4.82
2023-12-07T16:20:03.808Z,5.23
2023-12-07T16:22:35.600Z,4.38
2023-12-07T16:25:07.562Z,4.70
2023-12-07T16:27:39.302Z,4.13
2023-12-07T16:30:11.308Z,4.57
2023-12-07T16:32:43.175Z,5.90
2023-12-07T16:35:15.193Z,4.22
2023-12-07T16:37:46.916Z,4.70
2023-12-07T16:40:18.911Z,5.00
2023-12-07T16:42:50.654Z,4.18
2023-12-07T16:45:22.669Z,3.83
2023-12-07T16:47:54.462Z,4.35
2023-12-07T16:50:26.567Z,2.93
2023-12-07T16:52:58.677Z,3.22
2023-12-07T16:55:30.746Z,5.22
2023-12-07T16:58:02.455Z,5.07
2023-12-07T17:00:34.304Z,4.73
2023-12-07T17:03:06.146Z,3.53
2023-12-07T17:05:38.231Z,5.23
2023-12-07T17:08:09.955Z,4.72
2023-12-07T17:10:41.935Z,4.65
2023-12-07T17:13:13.777Z,3.50
2023-12-07T17:15:45.795Z,5.07
2023-12-07T17:18:17.635Z,3.58
2023-12-07T17:20:49.884Z,5.20
2023-12-07T17:23:21.611Z,4.65
2023-12-07T17:25:53.562Z,4.65
2023-12-07T17:28:25.287Z,4.95
2023-12-07T17:30:57.184Z,3.43
2023-12-07T17:33:29.029Z,3.50
2023-12-07T17:36:01.294Z,3.65
2023-12-07T17:38:33.218Z,3.42
2023-12-07T17:41:05.469Z,4.20
2023-12-07T17:43:37.205Z,4.70
2023-12-07T17:46:09.047Z,5.00
2023-12-07T17:48:40.920Z,4.33
2023-12-07T17:51:13.005Z,4.63
2023-12-07T17:53:44.846Z,5.32
2023-12-07T17:56:16.986Z,5.15
2023-12-07T17:58:48.711Z,2.78
2023-12-07T18:01:20.723Z,4.87
2023-12-07T18:03:52.472Z,5.38
2023-12-07T18:06:24.835Z,5.70
2023-12-07T18:08:56.710Z,3.15
2023-12-07T18:11:28.934Z,4.10
2023-12-07T18:14:00.669Z,3.85
2023-12-07T18:16:32.850Z,3.60
2023-12-07T18:19:04.918Z,4.47
2023-12-07T18:21:37.295Z,3.72
2023-12-07T18:24:09.080Z,4.18
2023-12-07T18:26:41.072Z,3.90
2023-12-07T18:29:12.832Z,4.75
2023-12-07T18:31:44.835Z,6.03
2023-12-07T18:34:16.590Z,4.75
2023-12-07T18:36:48.620Z,5.70
2023-12-07T18:39:20.357Z,4.35
2023-12-07T18:41:52.396Z,3.50
2023-12-07T18:44:24.146Z,4.50
2023-12-07T18:46:56.027Z,4.00
2023-12-07T18:49:27.927Z,4.00
2023-12-07T18:52:00.028Z,4.55
2023-12-07T18:54:31.790Z,3.85
2023-12-07T18:57:04.185Z,3.88
2023-12-07T18:59:35.975Z,3.10
2023-12-07T19:02:07.876Z,3.67
2023-12-07T19:04:39.662Z,4.25
2023-12-07T19:07:11.767Z,4.67
2023-12-07T19:09:43.482Z,3.80
2023-12-07T19:12:15.491Z,4.97
2023-12-07T19:14:47.255Z,4.88
2023-12-07T19:17:19.315Z,4.38
2023-12-07T19:19:51.160Z,3.47
2023-12-07T19:22:23.397Z,4.77
2023-12-07T19:24:55.126Z,5.18
2023-12-07T19:27:27.592Z,4.57
2023-12-07T19:32:31.451Z,4.22
2023-12-07T19:35:03.298Z,3.90
2023-12-07T19:37:35.331Z,3.00
2023-12-07T19:40:07.102Z,5.25
2023-12-07T19:42:41.565Z,5.23
2023-12-07T19:45:13.589Z,3.85
2023-12-07T19:47:45.669Z,6.70
2023-12-07T19:50:17.478Z,4.90
2023-12-07T19:52:49.521Z,6.35
2023-12-07T19:55:21.312Z,7.60
2023-12-07T19:57:53.359Z,5.28
2023-12-07T20:00:25.089Z,5.88
2023-12-07T20:02:57.151Z,4.97
2023-12-07T20:05:29.025Z,6.07
2023-12-07T20:08:01.346Z,5.18
2023-12-07T20:10:33.074Z,7.03
2023-12-07T20:13:05.393Z,3.05
2023-12-07T20:15:37.096Z,5.65
2023-12-07T20:18:09.321Z,4.57
2023-12-07T20:20:41.140Z,5.65
2023-12-07T20:23:12.959Z,5.70
2023-12-07T20:25:44.805Z,5.50
2023-12-07T20:28:16.953Z,4.97
2023-12-07T20:30:48.738Z,5.97
2023-12-07T20:33:21.054Z,5.22
2023-12-07T20:35:53.002Z,4.18
2023-12-07T20:38:24.961Z,4.97
2023-12-07T20:40:56.721Z,4.95
2023-12-07T20:43:28.787Z,4.90
2023-12-07T20:46:00.672Z,7.40
2023-12-07T20:48:32.913Z,5.20
2023-12-07T20:51:05.116Z,4.30
2023-12-07T20:53:36.874Z,4.43
2023-12-07T20:56:08.617Z,6.07
2023-12-07T20:58:40.412Z,6.75
2023-12-07T21:01:12.183Z,5.03
2023-12-07T21:03:44.020Z,4.60
2023-12-07T21:06:25.953Z,3.97
2023-12-07T21:08:59.123Z,5.15
2023-12-07T21:11:31.365Z,4.67
2023-12-07T21:14:03.594Z,5.35
2023-12-07T21:16:36.207Z,4.63
2023-12-07T21:19:08.063Z,4.32
2023-12-07T21:21:39.872Z,5.65
2023-12-07T21:24:11.933Z,5.47
2023-12-07T21:26:43.695Z,6.45
2023-12-07T21:29:15.618Z,5.00
2023-12-07T21:31:47.330Z,4.70
2023-12-07T21:34:19.251Z,4.88
2023-12-07T21:36:51.053Z,5.10
2023-12-07T21:39:23.069Z,7.05
2023-12-07T21:41:54.851Z,5.82
2023-12-07T21:44:26.862Z,6.60
2023-12-07T21:46:58.992Z,5.22
2023-12-07T21:49:30.761Z,4.90
2023-12-07T21:52:02.571Z,6.95
2023-12-07T21:54:34.299Z,5.25
2023-12-07T21:57:06.081Z,6.53
2023-12-07T21:59:37.835Z,5.30
2023-12-07T22:02:09.573Z,5.37
2023-12-07T22:04:41.328Z,4.63
2023-12-07T22:07:13.451Z,5.80
2023-12-07T22:09:45.536Z,5.28
2023-12-07T22:12:17.508Z,4.38
2023-12-07T22:14:49.564Z,5.90
2023-12-07T22:17:21.291Z,5.13
2023-12-07T22:19:53.536Z,4.50
2023-12-07T22:22:25.268Z,4.68
2023-12-07T22:24:57.303Z,4.22
2023-12-07T22:27:29.030Z,4.45
2023-12-07T22:30:01.036Z,5.68
2023-12-07T22:32:32.955Z,3.85
2023-12-07T22:35:05.377Z,4.28
2023-12-07T22:37:37.345Z,3.47
2023-12-07T22:40:09.084Z,3.75
2023-12-07T22:42:41.157Z,3.50
2023-12-07T22:45:13.127Z,5.07
2023-12-07T22:47:45.315Z,3.73
2023-12-07T22:50:17.165Z,3.38
2023-12-07T22:52:49.249Z,3.60
2023-12-07T22:55:21.036Z,5.05
2023-12-07T22:57:53.057Z,3.95
2023-12-07T23:00:24.786Z,5.85
2023-12-07T23:02:56.549Z,3.90
2023-12-07T23:05:28.317Z,5.43
2023-12-07T23:08:00.361Z,3.90
2023-12-07T23:10:32.070Z,3.80
2023-12-07T23:13:04.161Z,5.15
2023-12-07T23:15:36.196Z,2.25
2023-12-07T23:18:08.236Z,4.07
2023-12-07T23:20:40.388Z,3.22
2023-12-07T23:23:12.201Z,3.75
2023-12-07T23:25:44.304Z,3.77
2023-12-07T23:28:16.013Z,5.13
2023-12-07T23:30:48.092Z,3.40
2023-12-07T23:33:19.882Z,3.53
2023-12-07T23:35:52.074Z,3.67
2023-12-07T23:38:23.809Z,4.18
2023-12-07T23:40:55.536Z,4.72
2023-12-07T23:43:27.275Z,3.88
2023-12-07T23:45:59.021Z,3.53
2023-12-07T23:48:31.317Z,4.60
2023-12-07T23:51:03.164Z,4.18
2023-12-07T23:53:35.321Z,2.33
2023-12-07T23:56:07.056Z,3.92
2023-12-07T23:58:45.271Z,4.45
